createdAt,value
2018-06-15T00:01:31.634Z,20.86
2018-06-15T00:03:10.458Z,20.78
2018-06-15T00:04:47.042Z,20.81
2018-06-15T00:06:26.229Z,20.89
2018-06-15T00:08:02.619Z,21.01
2018-06-15T00:09:39.455Z,21.01
2018-06-15T00:11:15.685Z,20.94
2018-06-15T00:12:52.301Z,20.89
2018-06-15T00:14:30.753Z,20.99
2018-06-15T00:16:08.691Z,20.84
2018-06-15T00:18:00.226Z,20.98
2018-06-15T00:19:37.228Z,21.18
2018-06-15T00:21:14.995Z,21.31
2018-06-15T00:22:51.267Z,21.41
2018-06-15T00:24:27.480Z,21.49
2018-06-15T00:26:03.744Z,21.56
2018-06-15T00:27:40.254Z,21.58
2018-06-15T00:29:16.519Z,21.51
2018-06-15T00:30:52.925Z,21.43
2018-06-15T00:32:29.155Z,21.51
2018-06-15T00:34:06.946Z,21.33
2018-06-15T00:35:43.224Z,21.51
2018-06-15T00:37:19.593Z,21.43
2018-06-15T00:38:58.553Z,21.33
2018-06-15T00:40:34.788Z,21.45
2018-06-15T00:42:11.014Z,21.51
2018-06-15T00:43:47.331Z,21.49
2018-06-15T00:45:25.519Z,21.54
2018-06-15T00:47:04.663Z,21.68
2018-06-15T00:48:40.938Z,21.65
2018-06-15T00:50:19.799Z,21.53
2018-06-15T00:51:56.066Z,21.36
2018-06-15T00:53:32.870Z,21.32
2018-06-15T00:55:11.045Z,21.26
2018-06-15T00:57:04.279Z,21.29
2018-06-15T00:58:43.478Z,21.10
2018-06-15T01:00:21.686Z,20.92
2018-06-15T01:01:58.030Z,21.09
2018-06-15T01:03:34.382Z,21.26
2018-06-15T01:05:11.999Z,21.05
2018-06-15T01:06:49.587Z,21.24
2018-06-15T01:08:25.798Z,21.32
2018-06-15T01:10:03.775Z,21.48
2018-06-15T01:11:40.545Z,21.58
2018-06-15T01:13:16.675Z,21.55
2018-06-15T01:14:52.990Z,21.62
2018-06-15T01:16:29.092Z,21.62
2018-06-15T01:18:06.795Z,21.62
2018-06-15T01:19:44.881Z,21.52
2018-06-15T01:29:55.895Z,21.58
2018-06-15T01:31:32.482Z,21.33
2018-06-15T01:33:08.896Z,21.41
2018-06-15T01:34:45.260Z,21.42
2018-06-15T01:36:23.421Z,21.44
2018-06-15T01:38:00.341Z,21.46
2018-06-15T01:46:03.431Z,21.38
2018-06-15T01:47:40.401Z,21.33
2018-06-15T01:49:16.637Z,21.26
2018-06-15T01:50:53.381Z,20.81
2018-06-15T01:52:29.624Z,20.67
2018-06-15T01:54:05.852Z,20.83
2018-06-15T01:55:43.064Z,21.16
2018-06-15T01:57:19.749Z,21.19
2018-06-15T01:58:57.634Z,21.04
2018-06-15T02:00:35.465Z,20.88
2018-06-15T02:02:12.175Z,20.51
2018-06-15T02:03:50.050Z,20.46
2018-06-15T02:09:43.987Z,21.13
2018-06-15T02:11:39.778Z,21.30
2018-06-15T02:13:16.373Z,21.42
2018-06-15T02:14:58.949Z,21.50
2018-06-15T02:16:49.331Z,21.15
2018-06-15T02:18:25.624Z,20.92
2018-06-15T02:25:09.105Z,19.72
2018-06-15T02:26:45.518Z,19.52
2018-06-15T02:28:21.782Z,19.30
2018-06-15T02:29:58.334Z,19.44
2018-06-15T02:31:34.579Z,19.68
2018-06-15T02:33:12.717Z,20.14
2018-06-15T02:34:49.037Z,20.28
2018-06-15T02:36:25.757Z,20.31
2018-06-15T02:38:01.979Z,20.69
2018-06-15T02:39:38.278Z,20.62
2018-06-15T02:41:14.522Z,20.72
2018-06-15T02:42:51.202Z,20.83
2018-06-15T02:44:28.998Z,20.82
2018-06-15T02:46:05.251Z,20.78
2018-06-15T02:47:41.499Z,20.93
2018-06-15T02:49:18.319Z,21.16
2018-06-15T02:50:54.563Z,21.31
2018-06-15T02:52:30.849Z,21.21
2018-06-15T02:54:07.173Z,21.49
2018-06-15T02:55:44.102Z,21.69
2018-06-15T02:57:20.539Z,21.53
2018-06-15T02:58:57.535Z,21.52
2018-06-15T03:00:33.770Z,21.41
2018-06-15T03:02:11.194Z,21.32
2018-06-15T03:06:03.853Z,21.11
2018-06-15T03:07:40.102Z,21.06
2018-06-15T03:09:17.115Z,21.09
2018-06-15T03:10:53.402Z,21.13
2018-06-15T03:12:29.896Z,21.23
2018-06-15T03:14:09.632Z,21.21
2018-06-15T03:15:46.626Z,21.23
2018-06-15T03:17:25.002Z,21.19
2018-06-15T03:19:02.823Z,21.17
2018-06-15T03:20:39.531Z,21.10
2018-06-15T03:22:15.958Z,21.11
2018-06-15T03:23:53.728Z,21.15
2018-06-15T03:25:30.731Z,21.00
2018-06-15T03:27:07.275Z,20.58
2018-06-15T03:28:43.591Z,20.26
2018-06-15T03:30:21.192Z,20.14
2018-06-15T03:31:58.118Z,20.09
2018-06-15T03:33:34.388Z,20.10
2018-06-15T03:35:12.195Z,20.20
2018-06-15T03:36:48.834Z,20.21
2018-06-15T03:38:25.062Z,20.35
2018-06-15T03:40:01.347Z,20.71
2018-06-15T03:41:38.068Z,20.98
2018-06-15T03:43:15.483Z,20.94
2018-06-15T03:44:51.794Z,21.13
2018-06-15T03:46:28.109Z,21.24
2018-06-15T03:48:05.186Z,21.45
2018-06-15T03:49:41.718Z,21.56
2018-06-15T03:51:17.898Z,21.38
2018-06-15T03:52:55.042Z,21.18
2018-06-15T03:54:31.239Z,21.02
2018-06-15T03:56:07.850Z,20.97
2018-06-15T03:57:44.061Z,20.71
2018-06-15T03:59:20.306Z,20.42
2018-06-15T04:00:57.527Z,20.34
2018-06-15T04:02:34.319Z,20.64
2018-06-15T04:04:10.547Z,20.95
2018-06-15T04:05:46.818Z,21.21
2018-06-15T04:07:23.255Z,21.33
2018-06-15T04:08:59.871Z,21.43
2018-06-15T04:10:36.716Z,21.53
2018-06-15T04:12:13.194Z,21.05
2018-06-15T04:13:49.514Z,20.74
2018-06-15T04:15:29.569Z,20.59
2018-06-15T04:17:05.854Z,20.28
2018-06-15T04:18:42.670Z,20.26
2018-06-15T04:20:19.042Z,20.28
2018-06-15T04:21:56.620Z,20.44
2018-06-15T04:23:33.422Z,20.55
2018-06-15T04:25:13.236Z,20.56
2018-06-15T04:26:49.750Z,20.83
2018-06-15T04:28:27.013Z,20.47
2018-06-15T04:30:04.661Z,20.28
2018-06-15T04:31:40.870Z,20.05
2018-06-15T04:33:17.867Z,19.94
2018-06-15T04:34:58.451Z,19.92
2018-06-15T04:36:35.105Z,20.05
2018-06-15T04:38:12.387Z,20.17
2018-06-15T04:41:30.150Z,20.13
2018-06-15T04:43:06.394Z,20.25
2018-06-15T04:44:42.521Z,20.69
2018-06-15T04:46:19.634Z,20.87
2018-06-15T04:47:55.816Z,20.78
2018-06-15T04:49:32.019Z,21.05
2018-06-15T04:51:08.383Z,21.41
2018-06-15T04:52:45.143Z,21.64
2018-06-15T04:54:21.688Z,21.84
2018-06-15T04:55:57.995Z,21.92
2018-06-15T04:57:34.219Z,22.02
2018-06-15T04:59:10.934Z,22.02
2018-06-15T05:00:47.474Z,21.97
2018-06-15T05:02:26.710Z,21.98
2018-06-15T05:04:05.891Z,22.04
2018-06-15T05:05:42.533Z,21.90
2018-06-15T05:07:18.714Z,21.38
2018-06-15T05:08:54.977Z,21.52
2018-06-15T05:10:33.913Z,21.65
2018-06-15T05:12:10.844Z,21.44
2018-06-15T05:13:47.079Z,21.67
2018-06-15T05:15:25.110Z,21.81
2018-06-15T05:17:01.939Z,21.88
2018-06-15T05:18:38.138Z,21.81
2018-06-15T05:20:14.347Z,21.70
2018-06-15T05:21:50.614Z,21.69
2018-06-15T05:23:27.266Z,21.55
2018-06-15T05:25:03.462Z,21.68
2018-06-15T05:26:40.686Z,21.54
2018-06-15T05:28:17.530Z,21.29
2018-06-15T05:29:55.106Z,21.25
2018-06-15T05:31:32.324Z,21.35
2018-06-15T05:33:10.508Z,21.62
2018-06-15T05:34:47.455Z,21.75
2018-06-15T05:36:24.259Z,21.85
2018-06-15T05:38:01.366Z,21.51
2018-06-15T05:39:37.620Z,21.40
2018-06-15T05:41:13.907Z,21.30
2018-06-15T05:42:50.595Z,21.68
2018-06-15T05:44:28.282Z,21.98
2018-06-15T05:46:04.702Z,22.27
2018-06-15T05:47:43.056Z,22.46
2018-06-15T05:49:20.819Z,22.36
2018-06-15T05:50:57.105Z,21.83
2018-06-15T05:52:34.875Z,21.55
2018-06-15T05:54:13.621Z,21.27
2018-06-15T05:55:50.029Z,21.14
2018-06-15T05:57:27.110Z,21.57
2018-06-15T05:59:05.281Z,21.91
2018-06-15T06:00:42.745Z,21.78
2018-06-15T06:02:21.290Z,21.83
2018-06-15T06:03:58.384Z,22.31
2018-06-15T06:05:34.594Z,22.35
2018-06-15T06:07:10.859Z,22.09
2018-06-15T06:08:48.482Z,21.99
2018-06-15T06:10:25.055Z,21.66
2018-06-15T06:12:04.486Z,21.38
2018-06-15T06:13:43.169Z,21.43
2018-06-15T06:15:24.633Z,21.82
2018-06-15T06:17:01.839Z,22.17
2018-06-15T06:18:38.103Z,22.84
2018-06-15T06:20:15.003Z,23.15
2018-06-15T06:21:54.606Z,23.38
2018-06-15T06:23:30.788Z,23.64
2018-06-15T06:25:08.048Z,23.94
2018-06-15T06:26:44.357Z,24.18
2018-06-15T06:28:22.726Z,24.11
2018-06-15T06:29:59.814Z,23.89
2018-06-15T06:31:36.217Z,23.52
2018-06-15T06:33:13.495Z,23.44
2018-06-15T06:34:50.605Z,23.14
2018-06-15T06:36:26.858Z,22.72
2018-06-15T06:38:03.816Z,22.61
2018-06-15T06:39:42.766Z,22.40
2018-06-15T06:41:19.736Z,22.35
2018-06-15T06:42:55.967Z,22.83
2018-06-15T06:44:32.210Z,22.78
2018-06-15T06:46:10.570Z,22.59
2018-06-15T06:47:47.292Z,22.68
2018-06-15T06:49:23.785Z,22.79
2018-06-15T06:51:00.656Z,22.59
2018-06-15T06:52:38.733Z,22.61
2018-06-15T06:54:20.094Z,22.99
2018-06-15T06:55:56.328Z,23.46
2018-06-15T06:57:34.192Z,23.78
2018-06-15T06:59:10.546Z,23.79
2018-06-15T07:00:49.628Z,22.59
2018-06-15T07:02:27.678Z,21.61
2018-06-15T07:04:04.713Z,21.02
2018-06-15T07:05:40.929Z,21.19
2018-06-15T07:07:18.418Z,21.74
2018-06-15T07:08:56.914Z,22.42
2018-06-15T07:10:34.721Z,22.88
2018-06-15T07:12:11.439Z,23.15
2018-06-15T07:13:48.712Z,23.43
2018-06-15T07:15:30.377Z,23.63
2018-06-15T07:17:07.055Z,23.73
2018-06-15T07:18:44.028Z,23.30
2018-06-15T07:20:22.505Z,23.49
2018-06-15T07:21:59.625Z,23.89
2018-06-15T07:23:38.087Z,24.15
2018-06-15T07:25:16.968Z,24.30
2018-06-15T07:26:53.421Z,24.27
2018-06-15T07:28:30.469Z,24.49
2018-06-15T07:30:07.183Z,24.73
2018-06-15T07:31:44.258Z,24.84
2018-06-15T07:33:22.094Z,24.97
2018-06-15T07:35:04.576Z,25.06
2018-06-15T07:36:41.463Z,24.90
2018-06-15T07:38:18.704Z,24.77
2018-06-15T07:39:54.972Z,24.45
2018-06-15T07:41:31.819Z,23.74
2018-06-15T07:43:08.780Z,23.38
2018-06-15T07:44:45.143Z,22.78
2018-06-15T07:46:21.532Z,22.50
2018-06-15T07:47:59.795Z,22.55
2018-06-15T07:49:38.975Z,22.44
2018-06-15T07:51:16.245Z,22.53
2018-06-15T07:52:53.174Z,22.74
2018-06-15T07:54:32.543Z,22.29
2018-06-15T07:56:08.891Z,22.00
2018-06-15T07:57:46.297Z,21.91
2018-06-15T07:59:24.608Z,21.87
2018-06-15T08:01:02.501Z,22.19
2018-06-15T08:02:40.501Z,22.54
2018-06-15T08:04:21.515Z,22.79
2018-06-15T08:06:02.207Z,23.11
2018-06-15T08:07:39.164Z,23.24
2018-06-15T08:09:18.631Z,23.08
2018-06-15T08:10:56.346Z,22.93
2018-06-15T08:12:33.528Z,22.60
2018-06-15T08:14:10.692Z,22.17
2018-06-15T08:15:47.438Z,22.16
2018-06-15T08:17:24.672Z,22.58
2018-06-15T08:19:01.478Z,22.58
2018-06-15T08:20:38.391Z,22.50
2018-06-15T08:22:15.583Z,22.28
2018-06-15T08:23:55.229Z,21.96
2018-06-15T08:25:32.509Z,22.71
2018-06-15T08:27:09.658Z,23.30
2018-06-15T08:28:45.997Z,23.79
2018-06-15T08:30:24.677Z,23.98
2018-06-15T08:32:01.714Z,24.55
2018-06-15T08:33:42.913Z,24.72
2018-06-15T08:35:24.842Z,25.25
2018-06-15T08:37:02.018Z,25.49
2018-06-15T08:38:38.883Z,25.68
2018-06-15T08:40:16.075Z,25.58
2018-06-15T08:41:54.626Z,25.52
2018-06-15T08:43:31.800Z,25.47
2018-06-15T08:45:11.785Z,25.46
2018-06-15T08:46:49.599Z,25.30
2018-06-15T08:48:26.634Z,25.29
2018-06-15T08:50:03.531Z,25.21
2018-06-15T08:51:43.095Z,25.37
2018-06-15T08:53:21.803Z,25.52
2018-06-15T08:54:58.095Z,25.58
2018-06-15T08:56:34.975Z,25.52
2018-06-15T08:58:14.230Z,25.35
2018-06-15T08:59:52.491Z,25.23
2018-06-15T09:01:32.532Z,25.39
2018-06-15T09:03:08.745Z,25.56
2018-06-15T09:04:45.452Z,25.68
2018-06-15T09:06:25.733Z,25.25
2018-06-15T09:08:01.999Z,25.39
2018-06-15T09:09:39.730Z,25.42
2018-06-15T09:11:16.456Z,25.09
2018-06-15T09:12:53.256Z,25.49
2018-06-15T09:14:33.243Z,25.69
2018-06-15T09:16:10.767Z,25.55
2018-06-15T09:17:48.715Z,25.01
2018-06-15T09:19:28.221Z,25.29
2018-06-15T09:21:04.538Z,25.68
2018-06-15T09:22:41.642Z,26.02
2018-06-15T09:24:19.927Z,26.16
2018-06-15T09:27:36.630Z,26.53
2018-06-15T09:29:12.709Z,26.62
2018-06-15T09:30:50.297Z,26.47
2018-06-15T09:32:26.591Z,26.31
2018-06-15T09:34:04.256Z,26.22
2018-06-15T09:35:40.610Z,25.87
2018-06-15T09:37:17.703Z,25.64
2018-06-15T09:38:57.300Z,25.59
2018-06-15T09:40:35.241Z,25.33
2018-06-15T09:42:12.722Z,25.08
2018-06-15T09:43:49.490Z,25.07
2018-06-15T09:45:29.375Z,24.87
2018-06-15T09:47:07.494Z,24.70
2018-06-15T09:48:45.547Z,25.05
2018-06-15T09:50:23.189Z,24.94
2018-06-15T09:52:02.199Z,25.13
2018-06-15T09:53:39.640Z,25.41
2018-06-15T09:55:16.994Z,25.34
2018-06-15T09:56:56.286Z,25.14
2018-06-15T09:58:36.071Z,25.59
2018-06-15T10:00:18.346Z,26.06
2018-06-15T10:01:55.314Z,26.51
2018-06-15T10:03:32.442Z,26.27
2018-06-15T10:05:09.563Z,25.99
2018-06-15T10:06:46.198Z,25.90
2018-06-15T10:08:25.532Z,25.81
2018-06-15T10:10:01.738Z,26.33
2018-06-15T10:11:38.121Z,26.51
2018-06-15T10:13:16.755Z,26.73
2018-06-15T10:14:54.786Z,26.95
2018-06-15T10:16:35.904Z,26.80
2018-06-15T10:18:16.630Z,26.94
2018-06-15T10:19:53.682Z,27.08
2018-06-15T10:21:31.179Z,27.06
2018-06-15T10:23:10.391Z,26.98
2018-06-15T10:24:47.642Z,26.97
2018-06-15T10:26:25.768Z,26.95
2018-06-15T10:28:04.702Z,26.89
2018-06-15T10:29:44.185Z,26.75
2018-06-15T10:31:24.700Z,26.72
2018-06-15T10:33:02.558Z,26.72
2018-06-15T10:34:41.542Z,26.84
2018-06-15T10:36:18.148Z,26.37
2018-06-15T10:37:57.067Z,26.39
2018-06-15T10:39:37.440Z,26.49
2018-06-15T10:41:15.966Z,26.47
2018-06-15T10:42:54.791Z,26.48
2018-06-15T10:44:33.467Z,26.74
2018-06-15T10:46:23.297Z,26.88
2018-06-15T10:48:02.399Z,26.89
2018-06-15T10:49:39.267Z,26.76
2018-06-15T10:51:16.439Z,26.44
2018-06-15T10:52:53.150Z,26.09
2018-06-15T10:54:32.649Z,26.45
2018-06-15T10:56:08.937Z,26.67
2018-06-15T10:57:45.689Z,26.78
2018-06-15T11:01:02.450Z,26.55
2018-06-15T11:02:40.652Z,26.86
2018-06-15T11:04:18.690Z,26.76
2018-06-15T11:05:57.243Z,26.49
2018-06-15T11:07:33.511Z,26.27
2018-06-15T11:09:13.447Z,25.54
2018-06-15T11:10:50.440Z,25.46
2018-06-15T11:12:28.703Z,26.00
2018-06-15T11:15:49.856Z,26.60
2018-06-15T11:17:27.222Z,26.33
2018-06-15T11:19:07.450Z,26.24
2018-06-15T11:20:46.525Z,25.97
2018-06-15T11:22:27.654Z,25.89
2018-06-15T11:24:04.862Z,25.78
2018-06-15T11:25:45.467Z,25.64
2018-06-15T11:27:23.505Z,25.73
2018-06-15T11:29:03.500Z,25.91
2018-06-15T11:30:42.548Z,26.12
2018-06-15T11:32:20.962Z,26.27
2018-06-15T11:33:58.321Z,26.15
2018-06-15T11:35:39.414Z,25.79
2018-06-15T11:37:16.803Z,25.81
2018-06-15T11:38:54.690Z,25.98
2018-06-15T11:40:31.686Z,26.14
2018-06-15T11:42:08.927Z,26.33
2018-06-15T11:43:46.651Z,26.54
2018-06-15T11:45:24.860Z,26.50
2018-06-15T11:47:01.195Z,26.38
2018-06-15T11:48:37.410Z,26.52
2018-06-15T11:50:14.422Z,26.97
2018-06-15T11:51:50.736Z,27.12
2018-06-15T11:53:27.810Z,27.23
2018-06-15T11:55:05.320Z,27.34
2018-06-15T11:56:43.715Z,27.43
2018-06-15T11:58:23.702Z,27.45
2018-06-15T12:00:01.286Z,27.32
2018-06-15T12:01:40.432Z,27.13
2018-06-15T12:03:17.095Z,26.96
2018-06-15T12:04:54.012Z,27.14
2018-06-15T12:06:30.494Z,27.33
2018-06-15T12:08:07.739Z,27.51
2018-06-15T12:09:44.651Z,27.65
2018-06-15T12:11:23.283Z,27.83
2018-06-15T12:13:00.335Z,27.89
2018-06-15T12:14:41.870Z,28.00
2018-06-15T12:16:18.746Z,28.04
2018-06-15T12:17:55.964Z,28.07
2018-06-15T12:19:35.613Z,27.69
2018-06-15T12:21:13.795Z,27.60
2018-06-15T12:22:53.833Z,27.51
2018-06-15T12:24:33.518Z,27.43
2018-06-15T12:26:12.930Z,27.27
2018-06-15T12:27:52.566Z,27.52
2018-06-15T12:29:30.984Z,27.66
2018-06-15T12:31:08.739Z,27.57
2018-06-15T12:32:48.320Z,27.69
2018-06-15T12:34:26.170Z,27.92
2018-06-15T12:36:05.296Z,27.99
2018-06-15T12:37:46.626Z,28.09
2018-06-15T12:39:25.232Z,27.96
2018-06-15T12:41:06.919Z,27.42
2018-06-15T12:42:46.743Z,27.26
2018-06-15T12:44:22.994Z,26.78
2018-06-15T12:46:05.451Z,27.06
2018-06-15T12:47:43.539Z,27.08
2018-06-15T12:49:27.029Z,26.61
2018-06-15T12:51:03.907Z,26.95
2018-06-15T12:52:42.549Z,27.02
2018-06-15T12:54:19.485Z,27.04
2018-06-15T12:55:58.535Z,27.16
2018-06-15T12:57:36.420Z,27.43
2018-06-15T12:59:13.665Z,27.65
2018-06-15T13:00:53.974Z,28.15
2018-06-15T13:02:31.892Z,28.35
2018-06-15T13:04:10.697Z,28.22
2018-06-15T13:05:47.957Z,27.78
2018-06-15T13:07:27.303Z,27.45
2018-06-15T13:09:05.938Z,27.69
2018-06-15T13:10:44.492Z,27.81
2018-06-15T13:12:25.603Z,27.45
2018-06-15T13:14:01.867Z,26.70
2018-06-15T13:15:39.314Z,26.74
2018-06-15T13:17:15.515Z,27.23
2018-06-15T13:18:51.692Z,27.56
2018-06-15T13:20:28.060Z,27.67
2018-06-15T13:22:04.681Z,27.59
2018-06-15T13:23:41.481Z,27.49
2018-06-15T13:25:18.383Z,27.53
2018-06-15T13:26:56.483Z,27.33
2018-06-15T13:28:33.127Z,27.10
2018-06-15T13:30:10.994Z,27.10
2018-06-15T13:31:51.617Z,27.44
2018-06-15T13:33:28.975Z,27.73
2018-06-15T13:35:08.122Z,27.93
2018-06-15T13:36:46.194Z,27.92
2018-06-15T13:38:23.508Z,27.35
2018-06-15T13:40:00.620Z,27.52
2018-06-15T13:41:38.617Z,27.71
2018-06-15T13:43:17.710Z,27.69
2018-06-15T13:44:57.508Z,28.13
2018-06-15T13:46:35.051Z,28.00
2018-06-15T13:48:11.289Z,27.98
2018-06-15T13:49:48.532Z,28.29
2018-06-15T13:51:25.811Z,28.45
2018-06-15T13:53:03.375Z,28.51
2018-06-15T13:54:46.642Z,28.50
2018-06-15T13:56:26.340Z,28.57
2018-06-15T13:58:05.197Z,28.53
2018-06-15T13:59:44.576Z,28.35
2018-06-15T14:01:23.384Z,27.57
2018-06-15T14:03:01.247Z,27.50
2018-06-15T14:04:40.851Z,27.89
2018-06-15T14:06:21.331Z,28.20
2018-06-15T14:08:02.055Z,28.37
2018-06-15T14:09:40.550Z,28.31
2018-06-15T14:11:19.455Z,28.22
2018-06-15T14:12:56.747Z,27.99
2018-06-15T14:14:33.268Z,28.13
2018-06-15T14:16:12.879Z,28.30
2018-06-15T14:17:52.812Z,28.20
2018-06-15T14:19:32.555Z,27.97
2018-06-15T14:21:13.651Z,27.81
2018-06-15T14:22:56.506Z,27.91
2018-06-15T14:24:37.239Z,28.15
2018-06-15T14:26:18.696Z,27.93
2018-06-15T14:28:00.813Z,27.73
2018-06-15T14:29:43.596Z,27.78
2018-06-15T14:31:26.659Z,27.93
2018-06-15T14:33:04.368Z,28.00
2018-06-15T14:34:43.488Z,27.11
2018-06-15T14:36:20.003Z,26.79
2018-06-15T14:38:00.647Z,26.63
2018-06-15T14:39:37.829Z,26.65
2018-06-15T14:41:16.118Z,26.73
2018-06-15T14:42:52.348Z,26.25
2018-06-15T14:44:30.162Z,25.99
2018-06-15T14:46:08.947Z,25.95
2018-06-15T14:47:45.503Z,25.90
2018-06-15T14:49:23.637Z,26.18
2018-06-15T14:51:01.654Z,26.57
2018-06-15T14:52:38.495Z,27.13
2018-06-15T14:54:15.410Z,27.64
2018-06-15T14:55:53.809Z,27.92
2018-06-15T14:57:32.495Z,28.19
2018-06-15T14:59:11.368Z,28.39
2018-06-15T15:00:49.302Z,28.49
2018-06-15T15:02:27.394Z,28.63
2018-06-15T15:04:06.338Z,28.92
2018-06-15T15:05:46.591Z,28.95
2018-06-15T15:07:24.602Z,29.00
2018-06-15T15:09:06.617Z,29.04
2018-06-15T15:10:44.329Z,28.81
2018-06-15T15:12:21.202Z,28.84
2018-06-15T15:13:59.714Z,28.59
2018-06-15T15:15:39.829Z,28.53
2018-06-15T15:17:21.475Z,28.80
2018-06-15T15:19:00.167Z,28.80
2018-06-15T15:20:40.224Z,28.61
2018-06-15T15:22:25.086Z,28.22
2018-06-15T15:24:04.443Z,27.94
2018-06-15T15:25:43.431Z,28.00
2018-06-15T15:27:21.713Z,27.53
2018-06-15T15:28:59.524Z,27.69
2018-06-15T15:30:37.573Z,28.12
2018-06-15T15:32:15.464Z,28.15
2018-06-15T15:33:57.762Z,28.05
2018-06-15T15:35:34.160Z,27.83
2018-06-15T15:37:14.610Z,27.59
2018-06-15T15:38:51.442Z,27.50
2018-06-15T15:40:30.531Z,27.46
2018-06-15T15:42:08.583Z,27.52
2018-06-15T15:43:45.682Z,27.69
2018-06-15T15:45:22.242Z,27.93
2018-06-15T15:47:00.370Z,28.20
2018-06-15T15:48:39.005Z,28.26
2018-06-15T15:50:15.236Z,28.42
2018-06-15T15:51:53.231Z,28.38
2018-06-15T15:53:29.838Z,28.34
2018-06-15T15:55:08.559Z,28.25
2018-06-15T15:56:46.830Z,28.10
2018-06-15T15:58:25.776Z,28.40
2018-06-15T16:00:05.570Z,28.46
2018-06-15T16:01:42.997Z,28.67
2018-06-15T16:03:22.205Z,28.92
2018-06-15T16:05:01.460Z,29.15
2018-06-15T16:06:40.894Z,29.29
2018-06-15T16:08:20.239Z,29.26
2018-06-15T16:09:58.270Z,28.66
2018-06-15T16:11:34.676Z,28.22
2018-06-15T16:13:13.175Z,28.48
2018-06-15T16:14:51.135Z,28.76
2018-06-15T16:16:28.808Z,28.81
2018-06-15T16:18:06.442Z,28.75
2018-06-15T16:19:43.197Z,28.66
2018-06-15T16:21:21.607Z,28.54
2018-06-15T16:22:57.833Z,28.77
2018-06-15T16:24:37.795Z,28.98
2018-06-15T16:26:16.028Z,29.12
2018-06-15T16:27:55.526Z,29.07
2018-06-15T16:29:33.643Z,28.53
2018-06-15T16:31:10.352Z,28.52
2018-06-15T16:32:48.663Z,28.73
2018-06-15T16:34:30.919Z,28.85
2018-06-15T16:36:07.903Z,28.84
2018-06-15T16:37:53.843Z,28.79
2018-06-15T16:39:33.535Z,28.67
2018-06-15T16:41:10.367Z,28.50
2018-06-15T16:42:48.238Z,28.46
2018-06-15T16:44:34.587Z,28.26
2018-06-15T16:46:15.429Z,28.05
2018-06-15T16:47:55.768Z,27.84
2018-06-15T16:49:37.840Z,27.74
2018-06-15T16:51:14.028Z,27.91
2018-06-15T16:52:54.611Z,28.17
2018-06-15T16:54:35.357Z,28.31
2018-06-15T16:56:12.840Z,28.38
2018-06-15T16:57:59.620Z,28.24
2018-06-15T16:59:37.271Z,28.14
2018-06-15T17:01:14.807Z,28.10
2018-06-15T17:02:51.789Z,28.17
2018-06-15T17:04:30.872Z,28.12
2018-06-15T17:06:08.888Z,28.00
2018-06-15T17:07:50.364Z,28.11
2018-06-15T17:09:31.468Z,28.16
2018-06-15T17:11:11.567Z,28.04
2018-06-15T17:12:51.323Z,27.96
2018-06-15T17:14:28.297Z,28.20
2018-06-15T17:16:12.173Z,28.33
2018-06-15T17:17:53.509Z,28.25
2018-06-15T17:19:32.051Z,28.01
2018-06-15T17:21:09.678Z,28.10
2018-06-15T17:22:46.854Z,28.34
2018-06-15T17:24:24.758Z,28.46
2018-06-15T17:26:03.499Z,28.44
2018-06-15T17:27:39.760Z,28.24
2018-06-15T17:29:18.930Z,28.08
2018-06-15T17:30:56.363Z,28.21
2018-06-15T17:32:34.621Z,28.09
2018-06-15T17:34:16.090Z,28.18
2018-06-15T17:35:55.203Z,27.97
2018-06-15T17:37:32.634Z,28.03
2018-06-15T17:39:12.701Z,28.18
2018-06-15T17:40:50.226Z,27.69
2018-06-15T17:42:28.813Z,27.71
2018-06-15T17:45:37.909Z,27.88
2018-06-15T17:47:17.434Z,27.85
2018-06-15T17:48:54.531Z,27.92
2018-06-15T17:50:32.725Z,28.03
2018-06-15T17:52:11.160Z,27.96
2018-06-15T17:53:49.437Z,28.07
2018-06-15T17:55:25.664Z,28.01
2018-06-15T17:57:02.918Z,27.73
2018-06-15T17:58:39.189Z,27.78
2018-06-15T18:00:21.548Z,27.87
2018-06-15T18:02:03.357Z,27.71
2018-06-15T18:05:36.642Z,27.23
2018-06-15T18:07:21.767Z,27.18
2018-06-15T18:09:05.627Z,27.32
2018-06-15T18:10:44.494Z,27.48
2018-06-15T18:12:25.416Z,27.50
2018-06-15T18:14:07.454Z,27.67
2018-06-15T18:15:44.381Z,27.83
2018-06-15T18:17:28.492Z,27.73
2018-06-15T18:19:09.498Z,27.76
2018-06-15T18:20:48.419Z,27.81
2018-06-15T18:22:35.762Z,27.95
2018-06-15T18:24:16.505Z,28.00
2018-06-15T18:25:56.964Z,27.97
2018-06-15T18:27:37.495Z,27.94
2018-06-15T18:29:17.786Z,27.94
2018-06-15T18:30:54.865Z,27.96
2018-06-15T18:32:39.228Z,27.86
2018-06-15T18:34:15.670Z,27.80
2018-06-15T18:35:55.621Z,27.89
2018-06-15T18:37:35.423Z,27.81
2018-06-15T18:39:17.132Z,27.61
2018-06-15T18:40:56.976Z,27.50
2018-06-15T18:42:34.756Z,27.69
2018-06-15T18:44:11.283Z,27.74
2018-06-15T18:45:49.117Z,27.77
2018-06-15T18:47:26.675Z,27.74
2018-06-15T18:49:03.917Z,27.73
2018-06-15T18:50:43.267Z,27.67
2018-06-15T18:52:21.850Z,27.54
2018-06-15T18:54:00.205Z,27.56
2018-06-15T18:55:36.664Z,27.46
2018-06-15T18:57:15.411Z,27.31
2018-06-15T18:59:00.333Z,27.32
2018-06-15T19:00:42.805Z,27.46
2018-06-15T19:02:22.756Z,27.56
2018-06-15T19:04:05.432Z,27.50
2018-06-15T19:05:44.355Z,27.46
2018-06-15T19:07:21.537Z,27.17
2018-06-15T19:09:01.948Z,27.23
2018-06-15T19:10:42.256Z,27.08
2018-06-15T19:12:19.704Z,27.20
2018-06-15T19:13:57.339Z,27.12
2018-06-15T19:15:38.688Z,27.10
2018-06-15T19:17:16.577Z,27.09
2018-06-15T19:18:55.355Z,26.97
2018-06-15T19:20:32.236Z,26.97
2018-06-15T19:22:10.219Z,27.03
2018-06-15T19:23:46.522Z,27.05
2018-06-15T19:25:25.585Z,27.15
2018-06-15T19:27:04.833Z,27.14
2018-06-15T19:28:41.663Z,27.18
2018-06-15T19:30:21.762Z,27.09
2018-06-15T19:32:03.601Z,27.01
2018-06-15T19:33:41.368Z,26.92
2018-06-15T19:35:19.220Z,26.81
2018-06-15T19:36:55.890Z,26.69
2018-06-15T19:38:37.062Z,26.69
2018-06-15T19:40:14.729Z,26.71
2018-06-15T19:41:52.612Z,26.85
2018-06-15T19:43:28.929Z,27.02
2018-06-15T19:45:05.601Z,27.08
2018-06-15T19:46:42.869Z,26.96
2018-06-15T19:48:19.292Z,26.99
2018-06-15T19:49:56.887Z,27.03
2018-06-15T19:51:36.459Z,27.13
2018-06-15T19:53:14.246Z,27.17
2018-06-15T19:54:52.498Z,27.12
2018-06-15T19:56:30.365Z,27.04
2018-06-15T19:58:09.212Z,26.79
2018-06-15T19:59:47.602Z,26.57
2018-06-15T20:01:24.184Z,26.47
2018-06-15T20:03:01.375Z,26.46
2018-06-15T20:04:42.847Z,26.26
2018-06-15T20:06:19.165Z,26.23
2018-06-15T20:07:57.334Z,26.28
2018-06-15T20:09:34.811Z,26.16
2018-06-15T20:11:14.075Z,26.22
2018-06-15T20:12:52.564Z,26.37
2018-06-15T20:14:29.473Z,26.49
2018-06-15T20:16:06.942Z,26.56
2018-06-15T20:17:51.428Z,26.55
2018-06-15T20:19:36.028Z,26.54
2018-06-15T20:21:19.030Z,26.50
2018-06-15T20:22:59.042Z,26.46
2018-06-15T20:24:38.343Z,26.40
2018-06-15T20:26:15.441Z,26.41
2018-06-15T20:27:55.166Z,26.37
2018-06-15T20:29:37.333Z,26.31
2018-06-15T20:31:21.229Z,26.27
2018-06-15T20:33:08.609Z,26.27
2018-06-15T20:34:46.043Z,26.29
2018-06-15T20:36:22.705Z,26.30
2018-06-15T20:38:00.651Z,26.29
2018-06-15T20:39:37.610Z,26.25
2018-06-15T20:41:15.308Z,26.20
2018-06-15T20:42:52.202Z,26.20
2018-06-15T20:44:36.846Z,26.16
2018-06-15T20:46:15.534Z,26.08
2018-06-15T20:47:53.716Z,25.96
2018-06-15T20:55:05.581Z,25.78
2018-06-15T20:56:43.933Z,25.64
2018-06-15T20:58:20.217Z,25.63
2018-06-15T20:59:58.659Z,25.60
2018-06-15T21:01:38.285Z,25.61
2018-06-15T21:03:18.038Z,25.60
2018-06-15T21:04:55.973Z,25.60
2018-06-15T21:06:35.527Z,25.53
2018-06-15T21:08:14.375Z,25.39
2018-06-15T21:10:01.205Z,25.41
2018-06-15T21:11:42.694Z,25.48
2018-06-15T21:13:36.360Z,25.53
2018-06-15T21:15:37.936Z,25.67
2018-06-15T21:17:22.832Z,25.75
2018-06-15T21:19:08.183Z,25.72
2018-06-15T21:20:55.250Z,25.73
2018-06-15T21:22:50.137Z,25.83
2018-06-15T21:24:32.557Z,25.86
2018-06-15T21:26:10.778Z,25.87
2018-06-15T21:27:49.473Z,25.91
2018-06-15T21:29:29.256Z,26.00
2018-06-15T21:31:09.696Z,26.05
2018-06-15T21:32:48.468Z,26.08
2018-06-15T21:34:25.754Z,26.08
2018-06-15T21:36:03.653Z,25.91
2018-06-15T21:37:41.403Z,25.80
2018-06-15T21:39:20.571Z,25.75
2018-06-15T21:40:59.428Z,25.67
2018-06-15T21:42:42.222Z,25.70
2018-06-15T21:44:21.190Z,25.58
2018-06-15T21:46:02.201Z,25.21
2018-06-15T21:47:42.423Z,24.99
2018-06-15T21:49:20.998Z,24.85